createdAt,value
2022-08-26T00:00:52.034Z,56.92
2022-08-26T00:03:21.094Z,56.97
2022-08-26T00:05:51.337Z,57.51
2022-08-26T00:08:21.328Z,56.84
2022-08-26T00:10:50.822Z,55.99
2022-08-26T00:13:19.586Z,56.50
2022-08-26T00:15:48.265Z,55.07
2022-08-26T00:18:22.333Z,55.31
2022-08-26T00:20:51.648Z,54.68
2022-08-26T00:23:20.405Z,55.85
2022-08-26T00:25:53.483Z,54.04
2022-08-26T00:28:22.628Z,54.82
2022-08-26T00:30:52.664Z,55.96
2022-08-26T00:33:23.030Z,56.71
2022-08-26T00:35:51.611Z,57.41
2022-08-26T00:38:21.724Z,56.86
2022-08-26T00:40:55.288Z,56.70
2022-08-26T00:43:25.836Z,54.85
2022-08-26T00:46:04.931Z,55.71
2022-08-26T00:48:37.522Z,54.60
2022-08-26T00:51:14.175Z,54.62
2022-08-26T00:54:14.079Z,55.13
2022-08-26T00:56:57.636Z,55.90
2022-08-26T00:59:32.756Z,55.73
2022-08-26T01:02:03.103Z,54.92
2022-08-26T01:04:35.442Z,54.63
2022-08-26T01:07:06.961Z,54.41
2022-08-26T01:09:36.560Z,53.79
2022-08-26T01:12:06.207Z,53.19
2022-08-26T01:14:36.715Z,55.06
2022-08-26T01:17:07.240Z,53.17
2022-08-26T01:19:43.081Z,53.59
2022-08-26T01:22:28.233Z,54.84
2022-08-26T01:25:03.401Z,54.23
2022-08-26T01:27:33.598Z,53.06
2022-08-26T01:30:03.384Z,52.48
2022-08-26T01:32:33.122Z,55.33
2022-08-26T01:35:02.035Z,52.38
2022-08-26T01:37:36.464Z,53.11
2022-08-26T01:40:08.283Z,51.73
2022-08-26T01:42:36.848Z,53.15
2022-08-26T01:45:11.340Z,52.57
2022-08-26T01:47:41.610Z,53.83
2022-08-26T01:50:15.850Z,53.32
2022-08-26T01:52:59.680Z,54.87
2022-08-26T01:55:33.176Z,54.95
2022-08-26T01:58:06.605Z,54.04
2022-08-26T02:00:36.063Z,55.01
2022-08-26T02:03:18.864Z,53.64
2022-08-26T02:05:56.355Z,54.84
2022-08-26T02:08:30.973Z,53.97
2022-08-26T02:11:00.028Z,54.85
2022-08-26T02:13:31.482Z,55.62
2022-08-26T02:16:03.790Z,54.29
2022-08-26T02:18:37.212Z,53.02
2022-08-26T02:21:07.392Z,52.81
2022-08-26T02:23:37.516Z,51.33
2022-08-26T02:26:17.103Z,51.33
2022-08-26T02:28:58.326Z,54.28
2022-08-26T02:31:26.913Z,52.73
2022-08-26T02:33:55.359Z,54.87
2022-08-26T02:36:28.385Z,54.66
2022-08-26T02:38:57.273Z,54.64
2022-08-26T02:41:26.218Z,55.15
2022-08-26T02:43:54.683Z,55.32
2022-08-26T02:46:30.043Z,56.81
2022-08-26T02:48:59.482Z,53.22
2022-08-26T02:51:28.319Z,54.32
2022-08-26T02:53:56.944Z,54.23
2022-08-26T02:56:25.704Z,53.90
2022-08-26T02:58:56.434Z,52.15
2022-08-26T03:01:30.363Z,51.27
2022-08-26T03:04:01.537Z,52.75
2022-08-26T03:06:30.205Z,54.52
2022-08-26T03:08:58.599Z,55.04
2022-08-26T03:11:32.261Z,52.73
2022-08-26T03:14:01.805Z,52.32
2022-08-26T03:16:34.332Z,51.90
2022-08-26T03:19:06.442Z,53.62
2022-08-26T03:21:37.706Z,53.27
2022-08-26T03:24:06.427Z,52.16
2022-08-26T03:26:34.855Z,52.16
2022-08-26T03:29:24.490Z,51.56
2022-08-26T03:31:53.595Z,52.20
2022-08-26T03:34:22.534Z,52.47
2022-08-26T03:36:51.270Z,52.92
2022-08-26T03:39:19.779Z,52.88
2022-08-26T03:41:48.238Z,53.71
2022-08-26T03:44:16.632Z,55.54
2022-08-26T03:46:45.859Z,54.74
2022-08-26T03:49:14.311Z,53.14
2022-08-26T03:51:43.725Z,55.87
2022-08-26T03:54:14.208Z,53.96
2022-08-26T03:56:42.643Z,51.85
2022-08-26T03:59:14.898Z,53.01
2022-08-26T04:01:43.990Z,54.89
2022-08-26T04:04:15.545Z,53.34
2022-08-26T04:06:44.909Z,56.45
2022-08-26T04:09:18.495Z,54.73
2022-08-26T04:11:50.394Z,55.01
2022-08-26T04:14:22.221Z,54.63
2022-08-26T04:16:51.637Z,53.68
2022-08-26T04:19:21.508Z,54.36
2022-08-26T04:21:53.547Z,55.13
2022-08-26T04:24:23.867Z,55.44
2022-08-26T04:26:52.510Z,52.35
2022-08-26T04:29:25.301Z,53.71
2022-08-26T04:31:55.940Z,55.36
2022-08-26T04:34:28.442Z,55.55
2022-08-26T04:36:58.129Z,54.57
2022-08-26T04:39:27.975Z,54.98
2022-08-26T04:41:57.877Z,53.47
2022-08-26T04:44:30.242Z,53.33
2022-08-26T04:46:58.608Z,55.02
2022-08-26T04:49:27.576Z,55.77
2022-08-26T04:51:56.124Z,53.55
2022-08-26T04:54:26.081Z,55.48
2022-08-26T04:56:55.032Z,54.95
2022-08-26T04:59:23.563Z,56.94
2022-08-26T05:01:57.174Z,56.67
2022-08-26T05:04:25.836Z,55.09
2022-08-26T05:06:59.221Z,53.73
2022-08-26T05:09:31.022Z,55.92
2022-08-26T05:11:59.564Z,55.25
2022-08-26T05:14:30.153Z,56.14
2022-08-26T05:16:58.593Z,55.77
2022-08-26T05:19:27.843Z,55.70
2022-08-26T05:21:56.535Z,56.39
2022-08-26T05:24:25.027Z,54.67
2022-08-26T05:26:53.528Z,52.73
2022-08-26T05:29:22.366Z,55.45
2022-08-26T05:31:52.688Z,53.89
2022-08-26T05:34:21.224Z,52.95
2022-08-26T05:36:50.050Z,54.28
2022-08-26T05:39:18.895Z,53.94
2022-08-26T05:41:47.588Z,55.40
2022-08-26T05:44:18.810Z,54.79
2022-08-26T05:46:47.438Z,54.27
2022-08-26T05:49:16.325Z,55.90
2022-08-26T05:51:47.474Z,54.78
2022-08-26T05:54:21.384Z,54.18
2022-08-26T05:56:53.551Z,54.03
2022-08-26T05:59:24.186Z,53.25
2022-08-26T06:01:55.186Z,54.17
2022-08-26T06:04:28.497Z,53.35
2022-08-26T06:06:58.673Z,53.05
2022-08-26T06:09:27.320Z,54.03
2022-08-26T06:11:58.604Z,54.55
2022-08-26T06:14:27.170Z,55.93
2022-08-26T06:16:56.050Z,55.27
2022-08-26T06:19:24.753Z,55.48
2022-08-26T06:21:54.852Z,55.54
2022-08-26T06:24:42.283Z,54.80
2022-08-26T06:27:13.618Z,56.27
2022-08-26T06:29:42.550Z,54.36
2022-08-26T06:32:11.499Z,53.64
2022-08-26T06:34:39.970Z,54.60
2022-08-26T06:37:09.078Z,53.87
2022-08-26T06:39:41.179Z,53.85
2022-08-26T06:42:10.918Z,53.31
2022-08-26T06:44:41.384Z,51.58
2022-08-26T06:47:13.211Z,52.39
2022-08-26T06:49:41.860Z,53.15
2022-08-26T06:52:12.768Z,55.07
2022-08-26T06:54:44.336Z,53.56
2022-08-26T06:57:14.356Z,55.82
2022-08-26T06:59:45.468Z,53.57
2022-08-26T07:02:14.688Z,55.01
2022-08-26T07:04:44.366Z,53.80
2022-08-26T07:07:16.538Z,54.43
2022-08-26T07:09:45.815Z,55.46
2022-08-26T07:12:14.351Z,55.46
2022-08-26T07:14:47.463Z,54.10
2022-08-26T07:17:16.872Z,53.81
2022-08-26T07:19:46.495Z,54.05
2022-08-26T07:22:15.339Z,53.22
2022-08-26T07:24:44.981Z,53.18
2022-08-26T07:27:15.667Z,53.66
2022-08-26T07:29:44.888Z,52.70
2022-08-26T07:32:15.137Z,51.08
2022-08-26T07:34:43.633Z,53.97
2022-08-26T07:37:13.090Z,53.88
2022-08-26T07:39:43.264Z,52.36
2022-08-26T07:42:15.508Z,53.64
2022-08-26T07:44:47.191Z,52.45
2022-08-26T07:47:24.745Z,52.03
2022-08-26T07:49:56.657Z,53.71
2022-08-26T07:52:28.639Z,53.75
2022-08-26T07:55:00.961Z,53.45
2022-08-26T07:57:30.353Z,50.45
2022-08-26T07:59:59.732Z,50.66
2022-08-26T08:02:29.184Z,51.36
2022-08-26T08:04:58.392Z,50.25
2022-08-26T08:07:45.150Z,50.35
2022-08-26T08:10:17.925Z,49.58
2022-08-26T08:12:48.231Z,49.16
2022-08-26T08:15:20.084Z,49.76
2022-08-26T08:17:50.552Z,50.36
2022-08-26T08:20:22.061Z,51.07
2022-08-26T08:22:52.455Z,51.27
2022-08-26T08:25:23.292Z,51.01
2022-08-26T08:27:51.968Z,52.45
2022-08-26T08:30:22.744Z,51.22
2022-08-26T08:32:52.386Z,52.26
2022-08-26T08:35:22.633Z,51.08
2022-08-26T08:37:54.355Z,51.09
2022-08-26T08:40:26.236Z,51.69
2022-08-26T08:42:58.186Z,50.46
2022-08-26T08:45:26.749Z,50.93
2022-08-26T08:47:57.823Z,51.09
2022-08-26T08:50:31.504Z,49.77
2022-08-26T08:53:17.495Z,47.86
2022-08-26T08:55:58.355Z,49.64
2022-08-26T08:58:48.904Z,49.82
2022-08-26T09:01:24.817Z,49.71
2022-08-26T09:04:24.705Z,48.66
2022-08-26T09:10:28.512Z,47.55
2022-08-26T09:12:57.876Z,49.76
2022-08-26T09:15:56.454Z,49.12
2022-08-26T09:18:39.835Z,47.60
2022-08-26T09:21:11.624Z,48.73
2022-08-26T09:23:42.774Z,46.66
2022-08-26T09:26:40.914Z,47.42
2022-08-26T09:31:47.144Z,48.43
2022-08-26T09:34:23.020Z,48.83
2022-08-26T09:36:55.789Z,49.54
2022-08-26T09:39:24.218Z,50.28
2022-08-26T09:42:10.964Z,50.14
2022-08-26T09:44:52.200Z,48.66
2022-08-26T09:47:26.184Z,48.95
2022-08-26T09:50:18.534Z,49.59
2022-08-26T09:52:47.316Z,48.52
2022-08-26T09:55:22.875Z,48.98
2022-08-26T09:57:54.001Z,49.26
2022-08-26T10:00:55.536Z,49.77
2022-08-26T10:03:28.345Z,47.56
2022-08-26T10:06:21.940Z,46.98
2022-08-26T10:09:02.741Z,47.34
2022-08-26T10:11:39.871Z,47.14
2022-08-26T10:14:21.157Z,46.25
2022-08-26T10:16:56.525Z,46.49
2022-08-26T10:19:56.114Z,46.64
2022-08-26T10:22:59.557Z,46.11
2022-08-26T10:25:33.285Z,47.15
2022-08-26T10:28:18.744Z,46.22
2022-08-26T10:30:56.061Z,46.48
2022-08-26T10:33:25.228Z,45.54
2022-08-26T10:35:58.414Z,45.94
2022-08-26T10:38:37.694Z,45.76
2022-08-26T10:41:18.246Z,48.67
2022-08-26T10:43:58.962Z,47.25
2022-08-26T10:46:35.843Z,46.78
2022-08-26T10:49:09.701Z,46.71
2022-08-26T10:51:47.429Z,46.08
2022-08-26T10:54:26.065Z,45.89
2022-08-26T10:57:02.515Z,45.63
2022-08-26T10:59:30.879Z,45.05
2022-08-26T11:02:14.695Z,47.88
2022-08-26T11:05:18.536Z,46.76
2022-08-26T11:07:52.600Z,47.25
2022-08-26T11:10:23.224Z,48.76
2022-08-26T11:13:03.856Z,49.55
2022-08-26T11:15:32.827Z,47.29
2022-08-26T11:18:04.427Z,48.64
2022-08-26T11:20:47.441Z,46.42
2022-08-26T11:23:28.146Z,48.63
2022-08-26T11:25:57.257Z,47.71
2022-08-26T11:28:35.475Z,48.26
2022-08-26T11:31:08.759Z,46.80
2022-08-26T11:34:07.045Z,46.65
2022-08-26T11:37:04.951Z,47.51
2022-08-26T11:39:56.948Z,48.08
2022-08-26T11:42:46.400Z,48.21
2022-08-26T11:45:24.447Z,49.03
2022-08-26T11:47:54.667Z,46.34
2022-08-26T11:50:27.011Z,47.23
2022-08-26T11:53:01.887Z,48.17
2022-08-26T11:55:33.798Z,49.63
2022-08-26T11:58:05.008Z,48.34
2022-08-26T12:00:45.744Z,48.64
2022-08-26T12:05:46.317Z,47.26
2022-08-26T12:08:18.695Z,48.15
2022-08-26T12:10:49.064Z,48.21
2022-08-26T12:13:25.075Z,50.30
2022-08-26T12:15:58.038Z,50.84
2022-08-26T12:18:31.606Z,49.36
2022-08-26T12:21:19.260Z,48.93
2022-08-26T12:23:50.486Z,49.53
2022-08-26T12:26:22.454Z,48.71
2022-08-26T12:29:10.819Z,47.46
2022-08-26T12:32:17.386Z,48.01
2022-08-26T12:34:49.202Z,50.13
2022-08-26T12:37:18.883Z,49.36
2022-08-26T12:39:49.021Z,49.60
2022-08-26T12:42:17.545Z,48.31
2022-08-26T12:45:00.618Z,48.00
2022-08-26T12:47:42.970Z,49.57
2022-08-26T12:50:12.332Z,50.79
2022-08-26T12:53:03.225Z,50.07
2022-08-26T12:55:31.777Z,49.52
2022-08-26T12:58:10.643Z,50.90
2022-08-26T13:01:04.528Z,48.27
2022-08-26T13:03:40.285Z,48.59
2022-08-26T13:06:15.579Z,48.91
2022-08-26T13:08:46.142Z,48.47
2022-08-26T13:11:19.489Z,48.69
2022-08-26T13:13:54.804Z,48.79
2022-08-26T13:16:27.002Z,49.78
2022-08-26T13:19:00.092Z,50.54
2022-08-26T13:21:37.743Z,49.83
2022-08-26T13:24:13.159Z,48.21
2022-08-26T13:26:43.915Z,48.63
2022-08-26T13:29:13.592Z,48.74
2022-08-26T13:31:44.399Z,47.73
2022-08-26T13:34:18.095Z,48.19
2022-08-26T13:36:48.281Z,47.76
2022-08-26T13:39:17.890Z,45.87
2022-08-26T13:41:46.420Z,48.50
2022-08-26T13:44:15.124Z,49.76
2022-08-26T13:46:46.663Z,49.23
2022-08-26T13:49:15.321Z,48.94
2022-08-26T13:51:43.792Z,50.14
2022-08-26T13:54:12.267Z,48.08
2022-08-26T13:56:40.762Z,46.97
2022-08-26T13:59:09.229Z,47.57
2022-08-26T14:01:39.739Z,48.51
2022-08-26T14:04:08.661Z,47.58
2022-08-26T14:06:37.300Z,49.43
2022-08-26T14:09:05.853Z,50.69
2022-08-26T14:11:39.122Z,53.04
2022-08-26T14:14:23.524Z,53.35
2022-08-26T14:17:00.081Z,53.71
2022-08-26T14:19:31.267Z,54.53
2022-08-26T14:22:00.809Z,55.81
2022-08-26T14:24:30.079Z,56.35
2022-08-26T14:26:58.738Z,55.25
2022-08-26T14:29:27.694Z,55.69
2022-08-26T14:31:57.868Z,56.60
2022-08-26T14:34:26.614Z,55.54
2022-08-26T14:36:55.159Z,54.33
2022-08-26T14:39:24.775Z,53.06
2022-08-26T14:41:56.591Z,54.54
2022-08-26T14:44:29.825Z,53.41
2022-08-26T14:47:01.540Z,52.90
2022-08-26T14:49:31.312Z,52.36
2022-08-26T14:51:59.841Z,51.35
2022-08-26T14:54:29.377Z,49.51
2022-08-26T14:57:06.107Z,50.20
2022-08-26T14:59:41.418Z,49.35
2022-08-26T15:02:13.924Z,48.25
2022-08-26T15:05:02.411Z,47.89
2022-08-26T15:07:31.418Z,49.25
2022-08-26T15:10:00.160Z,49.61
2022-08-26T15:12:41.713Z,48.79
2022-08-26T15:15:13.231Z,48.35
2022-08-26T15:17:41.860Z,48.52
2022-08-26T15:20:11.419Z,49.33
2022-08-26T15:22:42.472Z,50.25
2022-08-26T15:25:12.983Z,50.81
2022-08-26T15:27:42.191Z,48.86
2022-08-26T15:30:13.000Z,49.68
2022-08-26T15:32:41.661Z,51.32
2022-08-26T15:35:10.255Z,51.58
2022-08-26T15:37:40.140Z,51.47
2022-08-26T15:40:09.846Z,50.51
2022-08-26T15:42:38.534Z,48.11
2022-08-26T15:45:07.674Z,46.34
2022-08-26T15:48:00.636Z,45.90
2022-08-26T15:50:25.492Z,46.86
2022-08-26T15:52:54.156Z,46.54
2022-08-26T15:55:23.400Z,47.08
2022-08-26T15:57:52.192Z,48.39
2022-08-26T16:00:21.261Z,47.49
2022-08-26T16:02:50.337Z,47.40
2022-08-26T16:05:18.869Z,49.79
2022-08-26T16:07:48.561Z,50.22
2022-08-26T16:10:18.500Z,50.07
2022-08-26T16:12:47.000Z,49.34
2022-08-26T16:15:15.575Z,49.61
2022-08-26T16:17:44.168Z,48.00
2022-08-26T16:20:13.145Z,49.00
2022-08-26T16:22:41.572Z,47.33
2022-08-26T16:25:10.865Z,48.60
2022-08-26T16:27:39.300Z,48.48
2022-08-26T16:30:08.471Z,49.91
2022-08-26T16:32:37.003Z,49.85
2022-08-26T16:35:06.171Z,49.32
2022-08-26T16:37:37.680Z,50.43
2022-08-26T16:40:09.936Z,49.11
2022-08-26T16:42:38.512Z,47.39
2022-08-26T16:45:07.529Z,48.54
2022-08-26T16:47:36.141Z,48.79
2022-08-26T16:50:06.691Z,49.71
2022-08-26T16:52:40.142Z,49.71
2022-08-26T16:55:11.584Z,47.59
2022-08-26T16:57:42.404Z,46.59
2022-08-26T17:00:27.653Z,47.74
2022-08-26T17:02:58.279Z,48.40
2022-08-26T17:05:31.825Z,48.37
2022-08-26T17:08:00.816Z,48.15
2022-08-26T17:10:30.438Z,48.33
2022-08-26T17:12:59.283Z,49.05
2022-08-26T17:15:28.830Z,49.15
2022-08-26T17:17:59.119Z,48.93
2022-08-26T17:20:27.879Z,49.24
2022-08-26T17:22:56.609Z,50.10
2022-08-26T17:25:28.814Z,48.90
2022-08-26T17:28:00.682Z,49.39
2022-08-26T17:30:29.735Z,49.96
2022-08-26T17:32:59.591Z,48.82
2022-08-26T17:35:29.391Z,48.04
2022-08-26T17:37:59.735Z,47.78
2022-08-26T17:40:31.794Z,47.81
2022-08-26T17:43:00.548Z,49.58
2022-08-26T17:45:33.047Z,48.33
2022-08-26T17:48:02.759Z,47.46
2022-08-26T17:50:31.404Z,47.95
2022-08-26T17:53:00.019Z,48.14
2022-08-26T17:55:29.106Z,47.66
2022-08-26T17:57:57.807Z,47.98
2022-08-26T18:00:27.573Z,48.74
2022-08-26T18:02:56.512Z,47.20
2022-08-26T18:05:25.171Z,46.16
2022-08-26T18:07:53.787Z,46.07
2022-08-26T18:10:22.563Z,48.17
2022-08-26T18:12:58.327Z,47.22
2022-08-26T18:15:27.299Z,47.87
2022-08-26T18:17:58.230Z,47.25
2022-08-26T18:20:27.957Z,48.44
2022-08-26T18:22:56.810Z,48.97
2022-08-26T18:25:29.755Z,47.27
2022-08-26T18:27:58.275Z,46.35
2022-08-26T18:30:27.260Z,46.11
2022-08-26T18:32:57.264Z,45.50
2022-08-26T18:35:28.658Z,47.40
2022-08-26T18:38:10.481Z,46.14
2022-08-26T18:40:42.864Z,46.43
2022-08-26T18:43:14.101Z,46.06
2022-08-26T18:45:42.536Z,45.47
2022-08-26T18:48:11.329Z,45.53
2022-08-26T18:50:42.346Z,47.85
2022-08-26T18:53:12.260Z,46.43
2022-08-26T18:55:40.872Z,45.44
2022-08-26T18:58:09.496Z,46.77
2022-08-26T19:00:39.384Z,46.52
2022-08-26T19:03:08.326Z,45.77
2022-08-26T19:05:47.436Z,45.73
2022-08-26T19:08:15.968Z,45.49
2022-08-26T19:10:44.365Z,46.37
2022-08-26T19:13:14.134Z,45.99
2022-08-26T19:15:45.459Z,45.95
2022-08-26T19:18:15.014Z,46.64
2022-08-26T19:20:46.791Z,45.43
2022-08-26T19:23:31.096Z,44.55
2022-08-26T19:26:04.631Z,44.13
2022-08-26T19:28:34.226Z,43.97
2022-08-26T19:31:03.684Z,43.90
2022-08-26T19:33:32.187Z,43.98
2022-08-26T19:36:03.667Z,43.70
2022-08-26T19:38:34.499Z,43.41
2022-08-26T19:41:03.039Z,43.42
2022-08-26T19:43:32.171Z,43.62
2022-08-26T19:46:00.728Z,44.05
2022-08-26T19:48:29.591Z,43.34
2022-08-26T19:50:57.996Z,44.43
2022-08-26T19:53:26.521Z,44.77
2022-08-26T19:55:55.047Z,44.83
2022-08-26T19:58:24.544Z,43.62
2022-08-26T20:00:52.988Z,43.58
2022-08-26T20:03:23.755Z,43.65
2022-08-26T20:05:52.167Z,43.25
2022-08-26T20:08:22.412Z,43.06
2022-08-26T20:10:51.753Z,43.28
2022-08-26T20:13:21.912Z,43.04
2022-08-26T20:15:50.370Z,42.49
2022-08-26T20:18:37.468Z,43.08
2022-08-26T20:21:24.695Z,42.31
2022-08-26T20:24:00.541Z,42.40
2022-08-26T20:26:33.212Z,42.33
2022-08-26T20:29:01.821Z,42.55
2022-08-26T20:31:31.199Z,42.95
2022-08-26T20:33:59.692Z,42.27
2022-08-26T20:36:29.014Z,42.55
2022-08-26T20:38:58.093Z,41.86
2022-08-26T20:41:27.505Z,42.52
2022-08-26T20:43:56.348Z,42.15
2022-08-26T20:46:25.591Z,41.96
2022-08-26T20:48:54.900Z,41.91
2022-08-26T20:51:26.755Z,43.14
2022-08-26T20:53:55.140Z,41.87
2022-08-26T20:56:25.083Z,42.30
2022-08-26T20:58:59.129Z,42.45
2022-08-26T21:01:34.341Z,41.98
2022-08-26T21:04:06.880Z,41.51
2022-08-26T21:06:35.542Z,42.94
2022-08-26T21:09:07.451Z,42.68
2022-08-26T21:11:37.999Z,44.40
2022-08-26T21:14:15.873Z,43.56
2022-08-26T21:16:46.552Z,44.48
2022-08-26T21:19:18.162Z,44.89
2022-08-26T21:21:48.083Z,44.26
2022-08-26T21:24:16.974Z,43.03
2022-08-26T21:26:46.223Z,43.23
2022-08-26T21:29:15.011Z,42.88
2022-08-26T21:31:46.391Z,42.96
2022-08-26T21:34:17.128Z,42.87
2022-08-26T21:36:46.851Z,44.18
2022-08-26T21:39:17.246Z,44.28
2022-08-26T21:41:47.142Z,44.16
2022-08-26T21:44:17.587Z,44.16
2022-08-26T21:46:47.125Z,43.24
2022-08-26T21:49:16.634Z,43.73
2022-08-26T21:51:51.726Z,43.38
2022-08-26T21:54:20.095Z,44.72
2022-08-26T21:56:48.947Z,43.83
2022-08-26T21:59:18.768Z,44.79
2022-08-26T22:01:47.683Z,45.82
2022-08-26T22:04:18.197Z,45.01
2022-08-26T22:06:53.157Z,44.21
2022-08-26T22:09:25.477Z,44.27
2022-08-26T22:11:56.776Z,43.82
2022-08-26T22:14:30.466Z,43.58
2022-08-26T22:16:59.709Z,44.28
2022-08-26T22:19:28.320Z,43.87
2022-08-26T22:21:57.681Z,43.89
2022-08-26T22:24:27.325Z,43.36
2022-08-26T22:26:55.961Z,43.64
2022-08-26T22:29:25.096Z,43.24
2022-08-26T22:31:53.749Z,43.78
2022-08-26T22:34:23.195Z,43.40
2022-08-26T22:36:51.893Z,43.28
2022-08-26T22:39:22.868Z,43.01
2022-08-26T22:41:53.812Z,44.25
2022-08-26T22:44:22.704Z,44.61
2022-08-26T22:46:54.257Z,43.63
2022-08-26T22:49:23.456Z,43.59
2022-08-26T22:51:52.052Z,44.79
2022-08-26T22:54:20.496Z,43.97
2022-08-26T22:56:49.022Z,43.49
2022-08-26T22:59:17.981Z,43.54
2022-08-26T23:01:47.294Z,43.67
2022-08-26T23:04:15.729Z,43.74
2022-08-26T23:06:47.693Z,43.48
2022-08-26T23:09:18.669Z,43.28
2022-08-26T23:11:48.550Z,44.52
2022-08-26T23:14:18.683Z,44.53
2022-08-26T23:16:47.532Z,44.86
2022-08-26T23:19:18.976Z,47.37
2022-08-26T23:21:48.381Z,45.61
2022-08-26T23:24:17.297Z,44.90
2022-08-26T23:26:46.287Z,44.72
2022-08-26T23:29:15.838Z,45.40
2022-08-26T23:31:44.343Z,44.45
2022-08-26T23:34:32.395Z,44.94
2022-08-26T23:37:01.515Z,44.91
2022-08-26T23:39:33.927Z,45.57
2022-08-26T23:42:03.230Z,44.33
2022-08-26T23:44:32.935Z,45.02
2022-08-26T23:47:01.703Z,44.25
2022-08-26T23:49:31.651Z,44.63
2022-08-26T23:52:18.782Z,44.43
2022-08-26T23:54:48.735Z,45.45
2022-08-26T23:57:18.550Z,45.05
2022-08-26T23:59:48.421Z,44.93
